sensor_id;sensor_type;location;lat;lon;timestamp;P1;durP1;ratioP1;P2;durP2;ratioP2
60714;SDS011;46564;53.096;8.246;2022-12-05T00:01:47;6.30;;;3.65;;
60714;SDS011;46564;53.096;8.246;2022-12-05T00:06:48;3.03;;;1.70;;
60714;SDS011;46564;53.096;8.246;2022-12-05T00:11:50;2.25;;;1.65;;
60714;SDS011;46564;53.096;8.246;2022-12-05T00:16:51;4.85;;;2.92;;
60714;SDS011;46564;53.096;8.246;2022-12-05T00:21:53;2.58;;;1.48;;
60714;SDS011;46564;53.096;8.246;2022-12-05T00:26:55;2.97;;;1.98;;
60714;SDS011;46564;53.096;8.246;2022-12-05T00:31:56;2.17;;;1.52;;
60714;SDS011;46564;53.096;8.246;2022-12-05T00:36:58;3.22;;;2.05;;
60714;SDS011;46564;53.096;8.246;2022-12-05T00:41:59;4.68;;;2.28;;
60714;SDS011;46564;53.096;8.246;2022-12-05T00:47:01;5.63;;;3.17;;
60714;SDS011;46564;53.096;8.246;2022-12-05T00:52:02;4.40;;;2.85;;
60714;SDS011;46564;53.096;8.246;2022-12-05T00:57:05;7.57;;;3.35;;
60714;SDS011;46564;53.096;8.246;2022-12-05T01:02:06;3.50;;;2.60;;
60714;SDS011;46564;53.096;8.246;2022-12-05T01:07:08;3.00;;;2.28;;
60714;SDS011;46564;53.096;8.246;2022-12-05T01:12:10;7.75;;;3.35;;
60714;SDS011;46564;53.096;8.246;2022-12-05T01:17:11;5.38;;;3.20;;
60714;SDS011;46564;53.096;8.246;2022-12-05T01:22:13;7.80;;;3.25;;
60714;SDS011;46564;53.096;8.246;2022-12-05T01:27:14;3.08;;;2.38;;
60714;SDS011;46564;53.096;8.246;2022-12-05T01:32:16;8.80;;;2.88;;
60714;SDS011;46564;53.096;8.246;2022-12-05T01:37:18;5.45;;;3.38;;
60714;SDS011;46564;53.096;8.246;2022-12-05T01:42:19;5.47;;;4.05;;
60714;SDS011;46564;53.096;8.246;2022-12-05T01:47:26;3.47;;;2.15;;
60714;SDS011;46564;53.096;8.246;2022-12-05T01:52:31;10.25;;;1.50;;
60714;SDS011;46564;53.096;8.246;2022-12-05T01:57:33;6.75;;;3.20;;
60714;SDS011;46564;53.096;8.246;2022-12-05T02:02:35;8.35;;;3.88;;
60714;SDS011;46564;53.096;8.246;2022-12-05T02:07:37;3.10;;;2.10;;
60714;SDS011;46564;53.096;8.246;2022-12-05T02:12:41;5.57;;;3.00;;
60714;SDS011;46564;53.096;8.246;2022-12-05T02:17:53;3.30;;;2.47;;
60714;SDS011;46564;53.096;8.246;2022-12-05T02:23:26;4.30;;;3.00;;
60714;SDS011;46564;53.096;8.246;2022-12-05T02:34:38;2.38;;;1.75;;
60714;SDS011;46564;53.096;8.246;2022-12-05T02:40:50;2.42;;;1.58;;
60714;SDS011;46564;53.096;8.246;2022-12-05T02:45:24;5.75;;;2.88;;
60714;SDS011;46564;53.096;8.246;2022-12-05T02:50:31;2.80;;;1.52;;
60714;SDS011;46564;53.096;8.246;2022-12-05T02:55:37;4.25;;;3.20;;
60714;SDS011;46564;53.096;8.246;2022-12-05T03:00:41;2.85;;;1.73;;
60714;SDS011;46564;53.096;8.246;2022-12-05T03:10:58;4.65;;;3.25;;
60714;SDS011;46564;53.096;8.246;2022-12-05T03:16:05;3.88;;;2.85;;
60714;SDS011;46564;53.096;8.246;2022-12-05T03:21:16;3.60;;;2.50;;
60714;SDS011;46564;53.096;8.246;2022-12-05T03:26:39;4.75;;;2.63;;
60714;SDS011;46564;53.096;8.246;2022-12-05T03:37:24;3.45;;;2.05;;
60714;SDS011;46564;53.096;8.246;2022-12-05T03:42:45;5.90;;;2.60;;
60714;SDS011;46564;53.096;8.246;2022-12-05T03:48:04;3.40;;;2.58;;
60714;SDS011;46564;53.096;8.246;2022-12-05T03:58:27;2.80;;;2.17;;
60714;SDS011;46564;53.096;8.246;2022-12-05T04:03:53;2.58;;;1.70;;
60714;SDS011;46564;53.096;8.246;2022-12-05T04:09:00;3.00;;;2.10;;
60714;SDS011;46564;53.096;8.246;2022-12-05T04:14:07;5.75;;;2.58;;
60714;SDS011;46564;53.096;8.246;2022-12-05T04:19:16;2.22;;;1.65;;
60714;SDS011;46564;53.096;8.246;2022-12-05T04:24:25;6.85;;;3.10;;
60714;SDS011;46564;53.096;8.246;2022-12-05T04:30:00;6.20;;;2.50;;
60714;SDS011;46564;53.096;8.246;2022-12-05T04:35:09;6.32;;;2.35;;
60714;SDS011;46564;53.096;8.246;2022-12-05T04:40:22;4.45;;;2.13;;
60714;SDS011;46564;53.096;8.246;2022-12-05T04:45:32;6.70;;;3.65;;
60714;SDS011;46564;53.096;8.246;2022-12-05T04:50:37;4.82;;;2.58;;
60714;SDS011;46564;53.096;8.246;2022-12-05T04:55:41;3.85;;;2.22;;
60714;SDS011;46564;53.096;8.246;2022-12-05T05:05:59;2.38;;;1.67;;
60714;SDS011;46564;53.096;8.246;2022-12-05T05:16:24;2.22;;;1.83;;
60714;SDS011;46564;53.096;8.246;2022-12-05T05:21:32;3.58;;;2.40;;
60714;SDS011;46564;53.096;8.246;2022-12-05T05:26:37;2.78;;;1.33;;
60714;SDS011;46564;53.096;8.246;2022-12-05T05:31:43;4.75;;;2.53;;
60714;SDS011;46564;53.096;8.246;2022-12-05T05:36:51;4.00;;;2.05;;
60714;SDS011;46564;53.096;8.246;2022-12-05T05:41:56;2.92;;;1.63;;
60714;SDS011;46564;53.096;8.246;2022-12-05T05:46:59;2.55;;;1.52;;
60714;SDS011;46564;53.096;8.246;2022-12-05T05:52:00;1.00;;;0.90;;
60714;SDS011;46564;53.096;8.246;2022-12-05T05:57:02;5.03;;;1.85;;
60714;SDS011;46564;53.096;8.246;2022-12-05T06:02:03;2.92;;;1.92;;
60714;SDS011;46564;53.096;8.246;2022-12-05T06:07:05;2.58;;;1.10;;
60714;SDS011;46564;53.096;8.246;2022-12-05T06:12:07;2.78;;;1.98;;
60714;SDS011;46564;53.096;8.246;2022-12-05T06:17:08;5.20;;;3.33;;
60714;SDS011;46564;53.096;8.246;2022-12-05T06:22:10;3.97;;;1.85;;
60714;SDS011;46564;53.096;8.246;2022-12-05T06:27:12;3.53;;;2.08;;
60714;SDS011;46564;53.096;8.246;2022-12-05T06:32:19;1.83;;;1.55;;
60714;SDS011;46564;53.096;8.246;2022-12-05T06:37:21;2.38;;;1.50;;
60714;SDS011;46564;53.096;8.246;2022-12-05T06:42:22;2.13;;;1.20;;
60714;SDS011;46564;53.096;8.246;2022-12-05T06:47:24;2.95;;;1.95;;
60714;SDS011;46564;53.096;8.246;2022-12-05T06:52:25;2.53;;;1.48;;
60714;SDS011;46564;53.096;8.246;2022-12-05T06:57:27;3.13;;;1.90;;
60714;SDS011;46564;53.096;8.246;2022-12-05T07:02:29;2.80;;;1.40;;
60714;SDS011;46564;53.096;8.246;2022-12-05T07:07:30;3.78;;;2.05;;
60714;SDS011;46564;53.096;8.246;2022-12-05T07:12:32;2.17;;;1.40;;
60714;SDS011;46564;53.096;8.246;2022-12-05T07:17:37;0.80;;;0.77;;
60714;SDS011;46564;53.096;8.246;2022-12-05T07:22:39;0.32;;;0.30;;
60714;SDS011;46564;53.096;8.246;2022-12-05T07:27:40;0.93;;;0.55;;
60714;SDS011;46564;53.096;8.246;2022-12-05T07:32:42;0.65;;;0.25;;
60714;SDS011;46564;53.096;8.246;2022-12-05T07:37:43;0.30;;;0.30;;
60714;SDS011;46564;53.096;8.246;2022-12-05T07:42:47;0.90;;;0.68;;
60714;SDS011;46564;53.096;8.246;2022-12-05T07:47:49;0.52;;;0.43;;
60714;SDS011;46564;53.096;8.246;2022-12-05T07:52:51;0.65;;;0.40;;
60714;SDS011;46564;53.096;8.246;2022-12-05T07:57:52;0.50;;;0.50;;
60714;SDS011;46564;53.096;8.246;2022-12-05T08:02:54;0.40;;;0.40;;
60714;SDS011;46564;53.096;8.246;2022-12-05T08:07:55;2.30;;;1.02;;
60714;SDS011;46564;53.096;8.246;2022-12-05T08:12:57;0.43;;;0.22;;
60714;SDS011;46564;53.096;8.246;2022-12-05T08:17:58;0.75;;;0.50;;
60714;SDS011;46564;53.096;8.246;2022-12-05T08:23:00;0.82;;;0.55;;
60714;SDS011;46564;53.096;8.246;2022-12-05T08:28:02;0.35;;;0.35;;
60714;SDS011;46564;53.096;8.246;2022-12-05T08:33:03;0.20;;;0.20;;
60714;SDS011;46564;53.096;8.246;2022-12-05T08:38:05;1.73;;;0.73;;
60714;SDS011;46564;53.096;8.246;2022-12-05T08:43:06;0.52;;;0.52;;
60714;SDS011;46564;53.096;8.246;2022-12-05T08:48:08;2.00;;;0.65;;
60714;SDS011;46564;53.096;8.246;2022-12-05T08:53:09;0.38;;;0.38;;
60714;SDS011;46564;53.096;8.246;2022-12-05T08:58:11;0.30;;;0.30;;
60714;SDS011;46564;53.096;8.246;2022-12-05T09:03:13;2.75;;;1.33;;
60714;SDS011;46564;53.096;8.246;2022-12-05T09:08:14;0.70;;;0.60;;
60714;SDS011;46564;53.096;8.246;2022-12-05T09:13:16;0.63;;;0.57;;
60714;SDS011;46564;53.096;8.246;2022-12-05T09:18:17;2.40;;;1.33;;
60714;SDS011;46564;53.096;8.246;2022-12-05T09:23:19;0.98;;;0.73;;
60714;SDS011;46564;53.096;8.246;2022-12-05T09:28:21;1.30;;;1.15;;
60714;SDS011;46564;53.096;8.246;2022-12-05T09:33:22;0.47;;;0.40;;
60714;SDS011;46564;53.096;8.246;2022-12-05T09:38:24;1.02;;;0.77;;
60714;SDS011;46564;53.096;8.246;2022-12-05T09:43:29;0.98;;;0.63;;
60714;SDS011;46564;53.096;8.246;2022-12-05T09:48:52;1.88;;;0.75;;
60714;SDS011;46564;53.096;8.246;2022-12-05T09:53:55;2.95;;;0.60;;
60714;SDS011;46564;53.096;8.246;2022-12-05T09:58:57;1.15;;;0.60;;
60714;SDS011;46564;53.096;8.246;2022-12-05T10:14:47;0.40;;;0.40;;
60714;SDS011;46564;53.096;8.246;2022-12-05T10:20:03;0.40;;;0.40;;
60714;SDS011;46564;53.096;8.246;2022-12-05T10:25:13;0.88;;;0.68;;
60714;SDS011;46564;53.096;8.246;2022-12-05T10:30:21;1.25;;;0.93;;
60714;SDS011;46564;53.096;8.246;2022-12-05T10:35:25;2.55;;;1.10;;
60714;SDS011;46564;53.096;8.246;2022-12-05T10:40:36;1.65;;;0.90;;
60714;SDS011;46564;53.096;8.246;2022-12-05T10:45:44;0.77;;;0.47;;
60714;SDS011;46564;53.096;8.246;2022-12-05T10:50:51;0.32;;;0.30;;
60714;SDS011;46564;53.096;8.246;2022-12-05T10:55:55;0.82;;;0.60;;
60714;SDS011;46564;53.096;8.246;2022-12-05T11:01:17;1.83;;;0.70;;
60714;SDS011;46564;53.096;8.246;2022-12-05T11:06:23;0.50;;;0.50;;
60714;SDS011;46564;53.096;8.246;2022-12-05T11:11:27;0.52;;;0.52;;
60714;SDS011;46564;53.096;8.246;2022-12-05T11:16:34;0.47;;;0.25;;
60714;SDS011;46564;53.096;8.246;2022-12-05T11:21:41;0.40;;;0.40;;
60714;SDS011;46564;53.096;8.246;2022-12-05T11:26:43;0.38;;;0.35;;
60714;SDS011;46564;53.096;8.246;2022-12-05T11:31:49;1.10;;;0.65;;
60714;SDS011;46564;53.096;8.246;2022-12-05T11:36:53;2.13;;;1.38;;
60714;SDS011;46564;53.096;8.246;2022-12-05T11:52:51;6.72;;;2.30;;
60714;SDS011;46564;53.096;8.246;2022-12-05T12:14:25;4.28;;;2.05;;
60714;SDS011;46564;53.096;8.246;2022-12-05T12:30:14;3.67;;;2.92;;
60714;SDS011;46564;53.096;8.246;2022-12-05T12:40:42;2.80;;;1.75;;
60714;SDS011;46564;53.096;8.246;2022-12-05T12:51:12;3.03;;;2.03;;
60714;SDS011;46564;53.096;8.246;2022-12-05T13:01:31;2.17;;;1.52;;
60714;SDS011;46564;53.096;8.246;2022-12-05T13:06:55;6.40;;;1.98;;
60714;SDS011;46564;53.096;8.246;2022-12-05T13:12:15;1.63;;;1.27;;
60714;SDS011;46564;53.096;8.246;2022-12-05T13:17:21;3.95;;;1.45;;
60714;SDS011;46564;53.096;8.246;2022-12-05T13:22:24;2.00;;;1.35;;
60714;SDS011;46564;53.096;8.246;2022-12-05T13:27:28;2.00;;;1.20;;
60714;SDS011;46564;53.096;8.246;2022-12-05T13:32:30;0.93;;;0.80;;
60714;SDS011;46564;53.096;8.246;2022-12-05T13:37:34;4.47;;;2.15;;
60714;SDS011;46564;53.096;8.246;2022-12-05T13:42:58;3.72;;;1.50;;
60714;SDS011;46564;53.096;8.246;2022-12-05T13:48:09;2.05;;;1.30;;
60714;SDS011;46564;53.096;8.246;2022-12-05T14:08:59;1.77;;;1.23;;
60714;SDS011;46564;53.096;8.246;2022-12-05T14:14:02;2.67;;;1.35;;
60714;SDS011;46564;53.096;8.246;2022-12-05T14:19:11;1.90;;;1.33;;
60714;SDS011;46564;53.096;8.246;2022-12-05T14:24:35;2.90;;;1.42;;
60714;SDS011;46564;53.096;8.246;2022-12-05T14:35:14;3.70;;;1.40;;
60714;SDS011;46564;53.096;8.246;2022-12-05T14:45:38;4.65;;;2.25;;
60714;SDS011;46564;53.096;8.246;2022-12-05T14:50:45;2.90;;;1.45;;
60714;SDS011;46564;53.096;8.246;2022-12-05T15:01:06;4.90;;;3.17;;
60714;SDS011;46564;53.096;8.246;2022-12-05T15:06:15;4.72;;;2.85;;
60714;SDS011;46564;53.096;8.246;2022-12-05T15:11:18;1.58;;;1.10;;
60714;SDS011;46564;53.096;8.246;2022-12-05T15:16:29;2.85;;;1.25;;
60714;SDS011;46564;53.096;8.246;2022-12-05T15:21:44;2.17;;;1.45;;
60714;SDS011;46564;53.096;8.246;2022-12-05T15:26:50;3.65;;;2.20;;
60714;SDS011;46564;53.096;8.246;2022-12-05T15:37:33;2.13;;;1.38;;
60714;SDS011;46564;53.096;8.246;2022-12-05T16:03:54;1.05;;;0.88;;
60714;SDS011;46564;53.096;8.246;2022-12-05T16:09:05;0.98;;;0.80;;
60714;SDS011;46564;53.096;8.246;2022-12-05T16:19:31;1.23;;;1.13;;
60714;SDS011;46564;53.096;8.246;2022-12-05T16:24:38;1.15;;;1.05;;
60714;SDS011;46564;53.096;8.246;2022-12-05T16:29:42;1.77;;;1.27;;
60714;SDS011;46564;53.096;8.246;2022-12-05T16:34:45;1.63;;;0.95;;
60714;SDS011;46564;53.096;8.246;2022-12-05T16:39:46;2.28;;;0.93;;
60714;SDS011;46564;53.096;8.246;2022-12-05T16:44:52;1.88;;;1.23;;
60714;SDS011;46564;53.096;8.246;2022-12-05T16:50:19;2.15;;;1.38;;
60714;SDS011;46564;53.096;8.246;2022-12-05T16:55:22;1.35;;;0.98;;
60714;SDS011;46564;53.096;8.246;2022-12-05T17:00:24;1.27;;;1.17;;
60714;SDS011;46564;53.096;8.246;2022-12-05T17:05:25;4.70;;;1.85;;
60714;SDS011;46564;53.096;8.246;2022-12-05T17:10:27;1.95;;;1.23;;
60714;SDS011;46564;53.096;8.246;2022-12-05T17:15:28;2.17;;;0.98;;
60714;SDS011;46564;53.096;8.246;2022-12-05T17:20:30;1.10;;;0.63;;
60714;SDS011;46564;53.096;8.246;2022-12-05T17:25:33;2.30;;;1.77;;
60714;SDS011;46564;53.096;8.246;2022-12-05T17:30:37;1.58;;;1.30;;
60714;SDS011;46564;53.096;8.246;2022-12-05T17:35:40;2.30;;;1.27;;
60714;SDS011;46564;53.096;8.246;2022-12-05T17:40:41;2.83;;;1.88;;
60714;SDS011;46564;53.096;8.246;2022-12-05T17:45:43;0.85;;;0.73;;
60714;SDS011;46564;53.096;8.246;2022-12-05T17:50:45;1.15;;;0.65;;
60714;SDS011;46564;53.096;8.246;2022-12-05T17:55:48;6.00;;;4.57;;
60714;SDS011;46564;53.096;8.246;2022-12-05T18:00:50;2.63;;;1.60;;
60714;SDS011;46564;53.096;8.246;2022-12-05T18:05:52;4.95;;;2.10;;
60714;SDS011;46564;53.096;8.246;2022-12-05T18:10:54;1.17;;;1.05;;
60714;SDS011;46564;53.096;8.246;2022-12-05T18:15:56;1.75;;;1.13;;
60714;SDS011;46564;53.096;8.246;2022-12-05T18:21:08;1.73;;;1.23;;
60714;SDS011;46564;53.096;8.246;2022-12-05T18:26:11;2.10;;;1.13;;
60714;SDS011;46564;53.096;8.246;2022-12-05T18:31:13;1.63;;;1.40;;
60714;SDS011;46564;53.096;8.246;2022-12-05T18:36:17;3.47;;;1.55;;
60714;SDS011;46564;53.096;8.246;2022-12-05T18:41:20;2.55;;;1.92;;
60714;SDS011;46564;53.096;8.246;2022-12-05T18:46:23;4.13;;;1.95;;
60714;SDS011;46564;53.096;8.246;2022-12-05T18:51:25;2.47;;;1.85;;
60714;SDS011;46564;53.096;8.246;2022-12-05T18:56:28;1.02;;;0.93;;
60714;SDS011;46564;53.096;8.246;2022-12-05T19:01:33;6.45;;;2.25;;
60714;SDS011;46564;53.096;8.246;2022-12-05T19:06:37;1.38;;;1.15;;
60714;SDS011;46564;53.096;8.246;2022-12-05T19:11:42;3.28;;;1.75;;
60714;SDS011;46564;53.096;8.246;2022-12-05T19:16:48;1.65;;;1.10;;
60714;SDS011;46564;53.096;8.246;2022-12-05T19:21:58;1.50;;;1.08;;
60714;SDS011;46564;53.096;8.246;2022-12-05T19:27:00;1.42;;;0.93;;
60714;SDS011;46564;53.096;8.246;2022-12-05T19:32:01;1.40;;;0.88;;
60714;SDS011;46564;53.096;8.246;2022-12-05T19:37:03;1.75;;;1.10;;
60714;SDS011;46564;53.096;8.246;2022-12-05T19:42:05;1.60;;;1.25;;
60714;SDS011;46564;53.096;8.246;2022-12-05T19:47:07;1.08;;;0.73;;
60714;SDS011;46564;53.096;8.246;2022-12-05T19:52:09;2.35;;;1.90;;
60714;SDS011;46564;53.096;8.246;2022-12-05T19:57:10;6.00;;;2.80;;
60714;SDS011;46564;53.096;8.246;2022-12-05T20:02:12;1.77;;;1.33;;
60714;SDS011;46564;53.096;8.246;2022-12-05T20:07:14;3.20;;;1.95;;
60714;SDS011;46564;53.096;8.246;2022-12-05T20:12:16;2.95;;;1.77;;
60714;SDS011;46564;53.096;8.246;2022-12-05T20:17:17;2.30;;;1.10;;
60714;SDS011;46564;53.096;8.246;2022-12-05T20:22:20;2.35;;;1.42;;
60714;SDS011;46564;53.096;8.246;2022-12-05T20:27:22;3.45;;;1.63;;
60714;SDS011;46564;53.096;8.246;2022-12-05T20:32:24;2.60;;;1.83;;
60714;SDS011;46564;53.096;8.246;2022-12-05T20:37:25;2.70;;;1.80;;
60714;SDS011;46564;53.096;8.246;2022-12-05T20:42:31;2.35;;;1.40;;
60714;SDS011;46564;53.096;8.246;2022-12-05T20:47:32;3.25;;;1.90;;
60714;SDS011;46564;53.096;8.246;2022-12-05T20:52:34;1.13;;;0.90;;
60714;SDS011;46564;53.096;8.246;2022-12-05T20:57:35;2.13;;;1.50;;
60714;SDS011;46564;53.096;8.246;2022-12-05T21:02:37;1.45;;;1.33;;
60714;SDS011;46564;53.096;8.246;2022-12-05T21:07:38;3.05;;;1.92;;
60714;SDS011;46564;53.096;8.246;2022-12-05T21:12:40;3.22;;;2.08;;
60714;SDS011;46564;53.096;8.246;2022-12-05T21:17:41;2.30;;;1.58;;
60714;SDS011;46564;53.096;8.246;2022-12-05T21:22:43;4.18;;;2.55;;
60714;SDS011;46564;53.096;8.246;2022-12-05T21:27:44;2.22;;;1.95;;
60714;SDS011;46564;53.096;8.246;2022-12-05T21:32:46;3.75;;;1.90;;
60714;SDS011;46564;53.096;8.246;2022-12-05T21:37:49;1.52;;;1.33;;
60714;SDS011;46564;53.096;8.246;2022-12-05T21:42:50;1.08;;;0.73;;
60714;SDS011;46564;53.096;8.246;2022-12-05T21:47:52;4.07;;;2.63;;
60714;SDS011;46564;53.096;8.246;2022-12-05T21:52:54;1.55;;;1.27;;
60714;SDS011;46564;53.096;8.246;2022-12-05T21:57:56;2.53;;;1.63;;
60714;SDS011;46564;53.096;8.246;2022-12-05T22:02:57;1.15;;;0.90;;
60714;SDS011;46564;53.096;8.246;2022-12-05T22:07:59;1.52;;;1.10;;
60714;SDS011;46564;53.096;8.246;2022-12-05T22:13:06;1.55;;;1.38;;
60714;SDS011;46564;53.096;8.246;2022-12-05T22:18:08;1.08;;;0.98;;
60714;SDS011;46564;53.096;8.246;2022-12-05T22:23:09;2.83;;;1.77;;
60714;SDS011;46564;53.096;8.246;2022-12-05T22:28:16;2.28;;;1.25;;
60714;SDS011;46564;53.096;8.246;2022-12-05T22:33:18;5.57;;;2.17;;
60714;SDS011;46564;53.096;8.246;2022-12-05T22:38:19;0.60;;;0.60;;
60714;SDS011;46564;53.096;8.246;2022-12-05T22:43:21;2.45;;;1.45;;
60714;SDS011;46564;53.096;8.246;2022-12-05T22:48:25;1.33;;;1.00;;
60714;SDS011;46564;53.096;8.246;2022-12-05T22:53:26;0.75;;;0.65;;
60714;SDS011;46564;53.096;8.246;2022-12-05T22:58:28;3.88;;;1.77;;
60714;SDS011;46564;53.096;8.246;2022-12-05T23:03:30;0.70;;;0.70;;
60714;SDS011;46564;53.096;8.246;2022-12-05T23:08:32;3.25;;;1.33;;
60714;SDS011;46564;53.096;8.246;2022-12-05T23:13:36;1.23;;;0.90;;
60714;SDS011;46564;53.096;8.246;2022-12-05T23:18:39;0.10;;;0.10;;
60714;SDS011;46564;53.096;8.246;2022-12-05T23:23:48;0.43;;;0.43;;
60714;SDS011;46564;53.096;8.246;2022-12-05T23:28:51;0.60;;;0.60;;
60714;SDS011;46564;53.096;8.246;2022-12-05T23:33:53;0.43;;;0.43;;
60714;SDS011;46564;53.096;8.246;2022-12-05T23:39:03;0.10;;;0.10;;
60714;SDS011;46564;53.096;8.246;2022-12-05T23:44:04;0.85;;;0.85;;
60714;SDS011;46564;53.096;8.246;2022-12-05T23:49:06;0.40;;;0.40;;
60714;SDS011;46564;53.096;8.246;2022-12-05T23:54:08;1.02;;;0.77;;
60714;SDS011;46564;53.096;8.246;2022-12-05T23:59:11;2.13;;;0.60;;
